createdAt,value
2022-11-10T00:00:38.213Z,9.92
2022-11-10T00:03:20.001Z,10.06
2022-11-10T00:05:48.576Z,9.72
2022-11-10T00:08:16.680Z,9.76
2022-11-10T00:11:01.497Z,9.75
2022-11-10T00:13:31.643Z,10.11
2022-11-10T00:16:17.545Z,10.08
2022-11-10T00:18:47.101Z,10.03
2022-11-10T00:21:17.444Z,9.89
2022-11-10T00:23:47.891Z,9.99
2022-11-10T00:26:17.575Z,9.96
2022-11-10T00:28:46.229Z,9.96
2022-11-10T00:31:14.914Z,9.75
2022-11-10T00:33:44.684Z,10.01
2022-11-10T00:36:14.227Z,10.10
2022-11-10T00:38:42.544Z,9.73
2022-11-10T00:41:10.571Z,9.70
2022-11-10T00:43:38.654Z,9.56
2022-11-10T00:46:07.265Z,9.86
2022-11-10T00:48:35.386Z,9.92
2022-11-10T00:51:03.941Z,9.83
2022-11-10T00:53:33.755Z,9.98
2022-11-10T00:56:01.873Z,9.75
2022-11-10T00:58:30.169Z,9.65
2022-11-10T01:01:02.447Z,10.15
2022-11-10T01:03:30.491Z,9.73
2022-11-10T01:05:58.916Z,9.82
2022-11-10T01:08:26.991Z,9.73
2022-11-10T01:11:02.712Z,10.20
2022-11-10T01:13:31.274Z,9.74
2022-11-10T01:16:03.923Z,9.74
2022-11-10T01:18:32.280Z,9.66
2022-11-10T01:21:00.281Z,9.69
2022-11-10T01:23:28.452Z,9.64
2022-11-10T01:25:59.766Z,10.02
2022-11-10T01:28:28.081Z,9.73
2022-11-10T01:30:59.740Z,10.12
2022-11-10T01:33:28.080Z,9.65
2022-11-10T01:35:56.244Z,9.66
2022-11-10T01:38:24.745Z,9.69
2022-11-10T01:40:53.040Z,9.56
2022-11-10T01:43:22.818Z,9.87
2022-11-10T01:45:52.837Z,9.87
2022-11-10T01:48:30.510Z,10.10
2022-11-10T01:51:07.493Z,9.94
2022-11-10T01:53:37.744Z,9.91
2022-11-10T01:56:06.523Z,9.76
2022-11-10T01:58:40.422Z,9.96
2022-11-10T02:01:08.783Z,9.58
2022-11-10T02:03:41.677Z,9.94
2022-11-10T02:06:10.122Z,9.50
2022-11-10T02:08:38.814Z,9.47
2022-11-10T02:11:07.174Z,9.45
2022-11-10T02:13:37.044Z,9.80
2022-11-10T02:16:05.413Z,9.57
2022-11-10T02:18:33.814Z,9.60
2022-11-10T02:21:06.174Z,10.03
2022-11-10T02:23:46.330Z,10.18
2022-11-10T02:26:15.404Z,9.70
2022-11-10T02:28:43.905Z,9.48
2022-11-10T02:31:12.925Z,9.48
2022-11-10T02:33:41.663Z,9.54
2022-11-10T02:36:11.651Z,9.78
2022-11-10T02:38:40.132Z,9.45
2022-11-10T02:41:08.357Z,9.47
2022-11-10T02:43:37.886Z,9.49
2022-11-10T02:46:06.425Z,9.68
2022-11-10T02:48:34.750Z,9.62
2022-11-10T02:51:03.057Z,9.70
2022-11-10T02:53:32.621Z,9.97
2022-11-10T02:56:00.615Z,9.71
2022-11-10T02:58:29.132Z,9.70
2022-11-10T03:00:57.257Z,9.75
2022-11-10T03:03:25.593Z,9.72
2022-11-10T03:05:53.916Z,9.69
2022-11-10T03:08:22.170Z,9.77
2022-11-10T03:10:54.529Z,10.22
2022-11-10T03:13:23.513Z,9.97
2022-11-10T03:15:51.781Z,9.87
2022-11-10T03:18:20.222Z,9.90
2022-11-10T03:20:50.151Z,10.08
2022-11-10T03:23:18.635Z,10.00
2022-11-10T03:25:47.138Z,10.06
2022-11-10T03:28:16.856Z,10.39
2022-11-10T03:30:45.140Z,10.11
2022-11-10T03:33:13.112Z,10.11
2022-11-10T03:35:41.475Z,10.25
2022-11-10T03:38:09.553Z,10.16
2022-11-10T03:40:50.742Z,10.13
2022-11-10T03:43:27.285Z,10.66
2022-11-10T03:45:55.219Z,10.35
2022-11-10T03:48:23.562Z,10.45
2022-11-10T03:50:51.829Z,10.27
2022-11-10T03:53:20.257Z,10.32
2022-11-10T03:55:48.816Z,10.35
2022-11-10T03:58:16.819Z,10.44
2022-11-10T04:00:46.172Z,10.71
2022-11-10T04:03:14.790Z,10.42
2022-11-10T04:06:00.229Z,10.38
2022-11-10T04:08:45.935Z,10.50
2022-11-10T04:11:34.092Z,10.37
2022-11-10T04:14:20.326Z,10.46
2022-11-10T04:16:49.973Z,10.62
2022-11-10T04:19:18.339Z,10.48
2022-11-10T04:21:46.513Z,10.46
2022-11-10T04:24:15.166Z,10.46
2022-11-10T04:26:42.983Z,10.60
2022-11-10T04:29:12.419Z,10.70
2022-11-10T04:31:41.850Z,10.81
2022-11-10T04:34:13.608Z,10.96
2022-11-10T04:36:43.237Z,10.91
2022-11-10T04:39:12.001Z,10.67
2022-11-10T04:41:40.386Z,10.67
2022-11-10T04:44:08.760Z,10.74
2022-11-10T04:46:38.363Z,10.96
2022-11-10T04:49:07.549Z,10.85
2022-11-10T04:51:39.070Z,11.04
2022-11-10T04:54:08.506Z,10.96
2022-11-10T04:56:37.274Z,10.83
2022-11-10T04:59:05.396Z,10.79
2022-11-10T05:01:33.745Z,10.89
2022-11-10T05:04:02.103Z,10.88
2022-11-10T05:06:30.243Z,10.95
2022-11-10T05:09:00.007Z,11.27
2022-11-10T05:11:28.212Z,11.01
2022-11-10T05:13:56.298Z,10.94
2022-11-10T05:16:24.597Z,10.91
2022-11-10T05:18:54.303Z,10.94
2022-11-10T05:21:22.674Z,10.91
2022-11-10T05:23:50.731Z,10.86
2022-11-10T05:26:20.359Z,11.28
2022-11-10T05:28:48.357Z,10.87
2022-11-10T05:31:16.284Z,10.84
2022-11-10T05:33:44.710Z,10.91
2022-11-10T05:36:12.747Z,10.83
2022-11-10T05:38:43.651Z,10.84
2022-11-10T05:41:12.632Z,10.95
2022-11-10T05:43:42.005Z,11.22
2022-11-10T05:46:10.336Z,10.96
2022-11-10T05:48:38.337Z,11.09
2022-11-10T05:51:07.052Z,11.19
2022-11-10T05:53:35.150Z,11.09
2022-11-10T05:56:03.550Z,11.03
2022-11-10T05:58:31.691Z,10.93
2022-11-10T06:01:01.056Z,11.30
2022-11-10T06:03:29.573Z,11.04
2022-11-10T06:05:58.158Z,11.06
2022-11-10T06:08:26.767Z,11.07
2022-11-10T06:10:54.981Z,11.03
2022-11-10T06:13:23.451Z,11.01
2022-11-10T06:15:52.201Z,10.95
2022-11-10T06:18:21.746Z,11.22
2022-11-10T06:20:49.941Z,10.97
2022-11-10T06:23:18.283Z,10.93
2022-11-10T06:25:46.475Z,10.96
2022-11-10T06:28:14.967Z,10.93
2022-11-10T06:30:43.540Z,10.87
2022-11-10T06:33:11.862Z,10.77
2022-11-10T06:35:41.858Z,11.21
2022-11-10T06:38:12.081Z,11.15
2022-11-10T06:40:40.588Z,10.99
2022-11-10T06:43:08.636Z,10.85
2022-11-10T06:45:36.991Z,10.89
2022-11-10T06:48:06.991Z,11.11
2022-11-10T06:50:35.565Z,11.01
2022-11-10T06:53:05.195Z,11.20
2022-11-10T06:55:33.582Z,10.98
2022-11-10T06:58:02.391Z,11.05
2022-11-10T07:00:30.975Z,11.13
2022-11-10T07:03:03.293Z,11.53
2022-11-10T07:05:32.391Z,11.26
2022-11-10T07:08:05.100Z,11.41
2022-11-10T07:10:34.228Z,11.19
2022-11-10T07:13:04.246Z,11.34
2022-11-10T07:15:33.694Z,11.28
2022-11-10T07:18:02.641Z,11.18
2022-11-10T07:20:30.863Z,11.13
2022-11-10T07:23:00.431Z,11.18
2022-11-10T07:25:31.651Z,11.49
2022-11-10T07:28:01.598Z,11.40
2022-11-10T07:30:30.585Z,11.33
2022-11-10T07:33:00.387Z,11.37
2022-11-10T07:35:29.224Z,11.29
2022-11-10T07:37:58.159Z,11.19
2022-11-10T07:40:26.327Z,11.15
2022-11-10T07:42:56.102Z,11.45
2022-11-10T07:45:24.442Z,11.54
2022-11-10T07:47:53.363Z,11.68
2022-11-10T07:50:21.582Z,11.65
2022-11-10T07:52:49.928Z,11.56
2022-11-10T07:55:18.142Z,11.72
2022-11-10T07:57:46.507Z,11.61
2022-11-10T08:00:17.690Z,12.08
2022-11-10T08:02:46.016Z,11.85
2022-11-10T08:05:14.143Z,11.78
2022-11-10T08:07:42.556Z,11.79
2022-11-10T08:10:11.147Z,11.89
2022-11-10T08:12:39.615Z,11.79
2022-11-10T08:15:08.395Z,12.00
2022-11-10T08:17:38.166Z,12.25
2022-11-10T08:20:07.342Z,12.14
2022-11-10T08:22:35.741Z,12.08
2022-11-10T08:25:03.857Z,12.07
2022-11-10T08:27:32.322Z,12.38
2022-11-10T08:30:00.389Z,12.50
2022-11-10T08:32:28.843Z,12.60
2022-11-10T08:34:58.490Z,13.06
2022-11-10T08:37:27.987Z,13.00
2022-11-10T08:39:56.030Z,12.74
2022-11-10T08:42:24.603Z,12.99
2022-11-10T08:44:52.816Z,13.10
2022-11-10T08:47:21.194Z,13.06
2022-11-10T08:49:49.281Z,13.07
2022-11-10T08:52:19.045Z,13.46
2022-11-10T08:54:47.230Z,13.21
2022-11-10T08:57:15.603Z,13.09
2022-11-10T08:59:44.036Z,13.18
2022-11-10T09:02:12.481Z,13.22
2022-11-10T09:04:40.608Z,13.13
2022-11-10T09:07:09.101Z,13.05
2022-11-10T09:09:38.758Z,13.38
2022-11-10T09:12:07.368Z,13.06
2022-11-10T09:14:35.387Z,13.01
2022-11-10T09:17:03.800Z,12.97
2022-11-10T09:19:31.817Z,12.86
2022-11-10T09:22:00.335Z,12.74
2022-11-10T09:24:31.304Z,12.57
2022-11-10T09:27:01.467Z,12.85
2022-11-10T09:29:29.485Z,12.48
2022-11-10T09:31:57.916Z,12.48
2022-11-10T09:34:25.998Z,12.47
2022-11-10T09:36:55.111Z,12.77
2022-11-10T09:39:23.261Z,12.58
2022-11-10T09:41:51.606Z,12.66
2022-11-10T09:44:25.179Z,13.20
2022-11-10T09:46:55.593Z,13.06
2022-11-10T09:49:35.077Z,13.19
2022-11-10T09:52:04.027Z,12.80
2022-11-10T09:54:38.651Z,13.11
2022-11-10T09:57:08.945Z,13.05
2022-11-10T09:59:38.566Z,13.13
2022-11-10T10:02:14.610Z,13.38
2022-11-10T10:04:57.172Z,13.67
2022-11-10T10:07:28.810Z,13.55
2022-11-10T10:10:00.268Z,14.17
2022-11-10T10:12:35.026Z,14.29
2022-11-10T10:15:14.619Z,13.89
2022-11-10T10:17:50.769Z,13.79
2022-11-10T10:20:22.805Z,13.86
2022-11-10T10:23:00.354Z,14.02
2022-11-10T10:25:28.970Z,13.93
2022-11-10T10:28:01.641Z,14.21
2022-11-10T10:30:31.411Z,14.37
2022-11-10T10:33:15.448Z,14.71
2022-11-10T10:35:45.188Z,14.30
2022-11-10T10:38:20.204Z,14.36
2022-11-10T10:40:51.411Z,14.07
2022-11-10T10:43:19.720Z,13.73
2022-11-10T10:46:04.890Z,14.56
2022-11-10T10:48:33.225Z,13.94
2022-11-10T10:51:01.319Z,14.36
2022-11-10T10:53:29.716Z,14.49
2022-11-10T10:56:00.941Z,14.94
2022-11-10T10:58:30.611Z,15.23
2022-11-10T11:01:06.821Z,15.71
2022-11-10T11:03:43.495Z,15.94
2022-11-10T11:06:23.086Z,16.30
2022-11-10T11:08:59.425Z,16.10
2022-11-10T11:11:30.663Z,15.78
2022-11-10T11:14:15.630Z,15.92
2022-11-10T11:16:49.467Z,15.39
2022-11-10T11:19:18.382Z,14.98
2022-11-10T11:22:22.924Z,15.21
2022-11-10T11:24:55.464Z,15.19
2022-11-10T11:27:28.192Z,15.20
2022-11-10T11:30:04.533Z,15.54
2022-11-10T11:32:58.676Z,15.95
2022-11-10T11:35:32.720Z,16.10
2022-11-10T11:38:09.707Z,16.27
2022-11-10T11:40:44.586Z,16.28
2022-11-10T11:43:24.617Z,16.51
2022-11-10T11:45:56.871Z,16.55
2022-11-10T11:48:55.555Z,17.02
2022-11-10T11:51:28.898Z,16.66
2022-11-10T11:54:28.645Z,16.70
2022-11-10T11:57:01.523Z,16.28
2022-11-10T11:59:41.675Z,16.08
2022-11-10T12:02:35.481Z,15.98
2022-11-10T12:05:17.860Z,15.86
2022-11-10T12:07:52.043Z,15.74
2022-11-10T12:10:28.431Z,15.69
2022-11-10T12:13:17.240Z,15.91
2022-11-10T12:15:51.858Z,15.63
2022-11-10T12:18:30.017Z,15.62
2022-11-10T12:21:09.632Z,15.89
2022-11-10T12:23:43.717Z,16.24
2022-11-10T12:26:20.446Z,16.72
2022-11-10T12:28:51.119Z,16.60
2022-11-10T12:31:23.431Z,16.64
2022-11-10T12:33:55.277Z,16.51
2022-11-10T12:36:25.927Z,16.49
2022-11-10T12:39:00.734Z,16.46
2022-11-10T12:41:35.437Z,16.28
2022-11-10T12:44:08.805Z,16.44
2022-11-10T12:46:37.144Z,15.99
2022-11-10T12:49:12.668Z,16.24
2022-11-10T12:51:49.302Z,16.22
2022-11-10T12:54:21.837Z,16.00
2022-11-10T12:56:53.046Z,15.96
2022-11-10T12:59:32.627Z,16.26
2022-11-10T13:02:04.494Z,16.06
2022-11-10T13:04:33.171Z,15.81
2022-11-10T13:07:08.891Z,16.09
2022-11-10T13:09:42.814Z,16.00
2022-11-10T13:12:20.037Z,16.14
2022-11-10T13:14:48.979Z,15.67
2022-11-10T13:17:53.600Z,16.11
2022-11-10T13:20:52.094Z,16.06
2022-11-10T13:23:27.221Z,15.87
2022-11-10T13:26:00.623Z,15.84
2022-11-10T13:28:57.899Z,16.08
2022-11-10T13:31:53.762Z,16.01
2022-11-10T13:34:34.149Z,15.75
2022-11-10T13:37:02.970Z,15.01
2022-11-10T13:39:34.074Z,15.16
2022-11-10T13:42:19.161Z,15.30
2022-11-10T13:44:47.906Z,14.67
2022-11-10T13:47:45.891Z,15.28
2022-11-10T13:50:37.088Z,15.47
2022-11-10T13:53:19.351Z,15.36
2022-11-10T13:55:57.315Z,15.43
2022-11-10T13:58:27.041Z,15.18
2022-11-10T14:01:21.767Z,15.42
2022-11-10T14:03:55.300Z,15.17
2022-11-10T14:06:26.203Z,14.97
2022-11-10T14:08:57.315Z,14.94
2022-11-10T14:11:28.798Z,15.35
2022-11-10T14:14:02.252Z,14.87
2022-11-10T14:16:33.231Z,14.63
2022-11-10T14:19:07.294Z,14.79
2022-11-10T14:21:42.530Z,14.77
2022-11-10T14:24:18.306Z,14.74
2022-11-10T14:26:49.898Z,14.56
2022-11-10T14:29:28.920Z,14.90
2022-11-10T14:31:58.261Z,14.28
2022-11-10T14:34:26.451Z,14.18
2022-11-10T14:36:56.016Z,14.37
2022-11-10T14:39:29.338Z,14.53
2022-11-10T14:42:01.480Z,14.52
2022-11-10T14:44:31.855Z,14.39
2022-11-10T14:47:14.966Z,14.78
2022-11-10T14:49:43.964Z,14.22
2022-11-10T14:52:15.117Z,14.41
2022-11-10T14:54:45.822Z,14.49
2022-11-10T14:57:19.755Z,14.49
2022-11-10T14:59:48.075Z,14.07
2022-11-10T15:02:18.830Z,14.25
2022-11-10T15:04:48.131Z,14.32
2022-11-10T15:07:16.687Z,14.14
2022-11-10T15:10:04.328Z,14.71
2022-11-10T15:12:38.118Z,14.49
2022-11-10T15:15:22.909Z,14.81
2022-11-10T15:17:52.678Z,14.36
2022-11-10T15:20:38.325Z,14.70
2022-11-10T15:23:14.379Z,14.35
2022-11-10T15:25:42.752Z,14.06
2022-11-10T15:28:28.954Z,14.49
2022-11-10T15:30:58.546Z,14.17
2022-11-10T15:33:28.672Z,14.20
2022-11-10T15:35:57.624Z,14.02
2022-11-10T15:38:31.745Z,14.24
2022-11-10T15:41:12.447Z,14.24
2022-11-10T15:43:42.060Z,14.05
2022-11-10T15:46:18.290Z,14.24
2022-11-10T15:48:48.508Z,13.98
2022-11-10T15:51:24.485Z,13.89
2022-11-10T15:53:55.594Z,13.71
2022-11-10T15:56:25.488Z,13.76
2022-11-10T15:59:00.644Z,13.78
2022-11-10T16:01:30.355Z,13.51
2022-11-10T16:03:58.740Z,13.51
2022-11-10T16:06:27.589Z,13.50
2022-11-10T16:08:56.042Z,13.48
2022-11-10T16:11:24.825Z,13.68
2022-11-10T16:13:54.918Z,13.55
2022-11-10T16:16:24.157Z,13.48
2022-11-10T16:18:53.215Z,13.36
2022-11-10T16:21:23.150Z,13.61
2022-11-10T16:23:51.368Z,13.53
2022-11-10T16:26:21.356Z,13.76
2022-11-10T16:28:49.846Z,13.39
2022-11-10T16:31:21.995Z,13.58
2022-11-10T16:33:50.885Z,13.22
2022-11-10T16:36:24.301Z,13.36
2022-11-10T16:38:53.123Z,12.92
2022-11-10T16:41:21.479Z,12.67
2022-11-10T16:43:49.580Z,12.58
2022-11-10T16:46:21.533Z,12.84
2022-11-10T16:48:50.344Z,12.49
2022-11-10T16:51:19.036Z,12.28
2022-11-10T16:53:47.146Z,12.23
2022-11-10T16:56:16.149Z,12.35
2022-11-10T16:58:44.630Z,12.13
2022-11-10T17:01:19.969Z,12.52
2022-11-10T17:03:50.860Z,12.36
2022-11-10T17:06:19.748Z,12.14
2022-11-10T17:08:48.464Z,11.95
2022-11-10T17:11:17.024Z,11.71
2022-11-10T17:13:45.747Z,11.64
2022-11-10T17:16:21.252Z,12.02
2022-11-10T17:18:49.476Z,11.52
2022-11-10T17:21:19.439Z,11.62
2022-11-10T17:23:47.653Z,11.51
2022-11-10T17:26:17.693Z,11.71
2022-11-10T17:28:47.555Z,11.44
2022-11-10T17:31:15.993Z,11.34
2022-11-10T17:33:45.690Z,11.64
2022-11-10T17:36:15.517Z,11.68
2022-11-10T17:38:44.369Z,11.27
2022-11-10T17:41:16.693Z,11.64
2022-11-10T17:43:46.119Z,11.37
2022-11-10T17:46:14.656Z,11.29
2022-11-10T17:48:43.414Z,11.18
2022-11-10T17:51:16.528Z,11.71
2022-11-10T17:53:44.977Z,11.26
2022-11-10T17:56:13.236Z,11.36
2022-11-10T17:58:41.660Z,11.54
2022-11-10T18:01:15.107Z,11.50
2022-11-10T18:03:43.644Z,11.27
2022-11-10T18:06:15.678Z,11.86
2022-11-10T18:08:44.760Z,11.46
2022-11-10T18:11:15.413Z,11.58
2022-11-10T18:13:43.716Z,11.37
2022-11-10T18:16:12.869Z,11.48
2022-11-10T18:18:41.327Z,11.31
2022-11-10T18:21:10.893Z,11.30
2022-11-10T18:23:40.507Z,11.37
2022-11-10T18:26:11.727Z,11.17
2022-11-10T18:28:42.194Z,11.08
2022-11-10T18:31:12.578Z,11.16
2022-11-10T18:33:41.272Z,10.99
2022-11-10T18:36:11.288Z,10.99
2022-11-10T18:38:40.802Z,11.11
2022-11-10T18:41:26.590Z,10.69
2022-11-10T18:43:54.832Z,10.70
2022-11-10T18:46:23.177Z,10.73
2022-11-10T18:48:51.976Z,10.73
2022-11-10T18:51:20.325Z,10.70
2022-11-10T18:53:49.912Z,11.02
2022-11-10T18:56:18.325Z,10.68
2022-11-10T18:58:53.700Z,10.83
2022-11-10T19:01:25.385Z,10.77
2022-11-10T19:03:53.760Z,10.65
2022-11-10T19:06:22.266Z,10.55
2022-11-10T19:08:51.834Z,10.87
2022-11-10T19:11:20.939Z,10.53
2022-11-10T19:13:50.280Z,10.52
2022-11-10T19:16:19.725Z,10.72
2022-11-10T19:18:47.840Z,10.46
2022-11-10T19:21:18.425Z,10.76
2022-11-10T19:23:46.569Z,10.47
2022-11-10T19:26:22.458Z,10.84
2022-11-10T19:28:53.376Z,10.44
2022-11-10T19:31:22.979Z,10.33
2022-11-10T19:33:52.841Z,10.58
2022-11-10T19:36:22.927Z,10.53
2022-11-10T19:38:51.205Z,10.31
2022-11-10T19:41:22.870Z,10.57
2022-11-10T19:43:50.677Z,11.02
2022-11-10T19:46:23.665Z,10.40
2022-11-10T19:48:52.027Z,10.18
2022-11-10T19:51:20.420Z,10.08
2022-11-10T19:53:51.067Z,10.22
2022-11-10T19:56:21.544Z,10.29
2022-11-10T19:58:49.961Z,10.02
2022-11-10T20:01:19.708Z,10.23
2022-11-10T20:03:48.017Z,9.98
2022-11-10T20:06:18.213Z,10.13
2022-11-10T20:08:46.348Z,9.88
2022-11-10T20:11:16.245Z,10.16
2022-11-10T20:13:45.680Z,10.16
2022-11-10T20:16:13.723Z,9.82
2022-11-10T20:18:42.437Z,10.05
2022-11-10T20:21:14.685Z,10.32
2022-11-10T20:23:43.431Z,9.99
2022-11-10T20:26:14.215Z,10.06
2022-11-10T20:28:43.033Z,9.82
2022-11-10T20:31:14.283Z,10.10
2022-11-10T20:33:42.626Z,9.70
2022-11-10T20:36:19.005Z,9.97
2022-11-10T20:38:49.138Z,9.59
2022-11-10T20:41:19.466Z,9.76
2022-11-10T20:43:48.442Z,9.72
2022-11-10T20:46:40.349Z,9.91
2022-11-10T20:49:07.873Z,9.59
2022-11-10T20:51:35.893Z,9.52
2022-11-10T20:54:04.391Z,9.53
2022-11-10T20:56:32.417Z,9.48
2022-11-10T20:59:00.711Z,9.49
2022-11-10T21:01:30.210Z,9.73
2022-11-10T21:03:58.971Z,9.44
2022-11-10T21:06:27.094Z,9.46
2022-11-10T21:08:57.036Z,9.40
2022-11-10T21:11:38.958Z,9.39
2022-11-10T21:14:07.321Z,9.41
2022-11-10T21:16:36.749Z,9.71
2022-11-10T21:19:05.141Z,9.32
2022-11-10T21:21:35.162Z,9.34
2022-11-10T21:24:03.281Z,9.23
2022-11-10T21:26:32.079Z,9.21
2022-11-10T21:29:00.249Z,9.25
2022-11-10T21:31:30.127Z,9.30
2022-11-10T21:33:59.987Z,9.60
2022-11-10T21:36:29.724Z,9.37
2022-11-10T21:38:58.615Z,9.35
2022-11-10T21:41:27.437Z,9.23
2022-11-10T21:43:55.599Z,9.18
2022-11-10T21:46:24.147Z,9.17
2022-11-10T21:48:52.347Z,9.22
2022-11-10T21:51:22.194Z,9.42
2022-11-10T21:53:50.392Z,9.22
2022-11-10T21:56:19.025Z,9.13
2022-11-10T21:58:47.150Z,9.01
2022-11-10T22:01:18.388Z,9.34
2022-11-10T22:03:46.981Z,9.03
2022-11-10T22:06:16.689Z,9.27
2022-11-10T22:08:47.692Z,9.47
2022-11-10T22:11:38.074Z,9.53
2022-11-10T22:14:29.939Z,9.54
2022-11-10T22:17:15.748Z,9.11
2022-11-10T22:19:44.725Z,9.02
2022-11-10T22:22:14.378Z,9.06
2022-11-10T22:24:44.088Z,9.32
2022-11-10T22:27:12.217Z,8.95
2022-11-10T22:29:40.606Z,8.99
2022-11-10T22:32:08.820Z,8.92
2022-11-10T22:34:37.222Z,8.85
2022-11-10T22:37:05.573Z,8.69
2022-11-10T22:39:47.829Z,8.71
2022-11-10T22:42:34.918Z,9.00
2022-11-10T22:45:03.056Z,8.63
2022-11-10T22:47:51.480Z,8.57
2022-11-10T22:50:19.709Z,8.68
2022-11-10T22:52:48.007Z,8.62
2022-11-10T22:55:16.413Z,8.60
2022-11-10T22:57:46.146Z,8.78
2022-11-10T23:00:16.040Z,8.67
2022-11-10T23:02:44.785Z,8.43
2022-11-10T23:05:13.223Z,8.46
2022-11-10T23:07:41.583Z,8.38
2022-11-10T23:10:09.989Z,8.31
2022-11-10T23:12:38.195Z,8.23
2022-11-10T23:15:09.073Z,8.50
2022-11-10T23:17:37.131Z,8.16
2022-11-10T23:20:06.113Z,8.34
2022-11-10T23:22:34.348Z,8.20
2022-11-10T23:25:02.675Z,8.09
2022-11-10T23:27:30.907Z,8.30
2022-11-10T23:29:59.284Z,8.21
2022-11-10T23:32:28.974Z,8.53
2022-11-10T23:34:57.446Z,8.13
2022-11-10T23:37:25.482Z,8.14
2022-11-10T23:39:53.750Z,8.09
2022-11-10T23:42:22.274Z,8.14
2022-11-10T23:44:52.724Z,8.07
2022-11-10T23:47:21.176Z,8.08
2022-11-10T23:49:50.539Z,8.34
2022-11-10T23:52:18.857Z,8.03
2022-11-10T23:54:46.887Z,7.97
2022-11-10T23:57:15.339Z,8.05
2022-11-10T23:59:43.452Z,7.90
